createdAt,value
2018-07-09T00:02:06.811Z,83.70
2018-07-09T00:07:02.581Z,83.70
2018-07-09T00:09:30.518Z,83.50
2018-07-09T00:11:59.160Z,84.10
2018-07-09T00:14:27.237Z,84.30
2018-07-09T00:16:55.164Z,84.40
2018-07-09T00:19:23.107Z,84.00
2018-07-09T00:21:50.999Z,83.90
2018-07-09T00:26:46.735Z,83.80
2018-07-09T00:29:14.981Z,84.00
2018-07-09T00:31:42.847Z,84.20
2018-07-09T00:34:10.713Z,84.20
2018-07-09T00:36:38.609Z,84.40
2018-07-09T00:41:35.757Z,84.30
2018-07-09T00:44:03.940Z,84.80
2018-07-09T00:49:00.091Z,85.00
2018-07-09T00:53:55.846Z,85.90
2018-07-09T00:58:51.493Z,85.70
2018-07-09T01:01:19.638Z,85.40
2018-07-09T01:08:43.434Z,84.90
2018-07-09T01:13:45.946Z,85.20
2018-07-09T01:16:13.886Z,85.20
2018-07-09T01:18:42.312Z,85.10
2018-07-09T01:21:12.401Z,85.00
2018-07-09T01:26:08.671Z,85.30
2018-07-09T01:28:38.259Z,85.40
2018-07-09T01:31:06.256Z,85.50
2018-07-09T01:33:34.176Z,85.60
2018-07-09T01:36:02.141Z,86.20
2018-07-09T01:38:30.049Z,86.00
2018-07-09T01:43:25.728Z,86.50
2018-07-09T01:45:53.813Z,86.80
2018-07-09T01:48:21.685Z,86.60
2018-07-09T01:53:17.355Z,87.20
2018-07-09T01:55:45.244Z,87.20
2018-07-09T01:58:13.120Z,86.80
2018-07-09T02:00:40.986Z,86.80
2018-07-09T02:03:09.315Z,86.70
2018-07-09T02:05:37.213Z,86.70
2018-07-09T02:08:05.755Z,86.70
2018-07-09T02:13:01.540Z,86.90
2018-07-09T02:15:29.462Z,87.00
2018-07-09T02:22:53.097Z,86.80
2018-07-09T02:25:21.780Z,87.00
2018-07-09T02:27:49.698Z,86.60
2018-07-09T02:30:17.590Z,86.70
2018-07-09T02:32:45.485Z,86.60
2018-07-09T02:35:13.401Z,86.10
2018-07-09T02:40:09.313Z,86.70
2018-07-09T02:42:37.144Z,86.70
2018-07-09T02:47:33.089Z,86.00
2018-07-09T02:50:00.977Z,86.10
2018-07-09T02:52:28.890Z,86.10
2018-07-09T02:54:57.183Z,86.20
2018-07-09T02:57:25.117Z,87.00
2018-07-09T02:59:53.038Z,86.90
2018-07-09T03:02:20.947Z,86.60
2018-07-09T03:04:48.918Z,86.90
2018-07-09T03:07:16.804Z,86.80
2018-07-09T03:12:12.476Z,87.30
2018-07-09T03:14:40.366Z,87.10
2018-07-09T03:17:08.496Z,87.30
2018-07-09T03:19:36.569Z,87.50
2018-07-09T03:24:32.343Z,87.70
2018-07-09T03:27:00.747Z,87.60
2018-07-09T03:31:56.439Z,87.90
2018-07-09T03:34:24.686Z,87.70
2018-07-09T03:36:52.578Z,87.80
2018-07-09T03:39:20.512Z,87.70
2018-07-09T03:41:48.418Z,87.80
2018-07-09T03:44:16.364Z,88.40
2018-07-09T03:46:44.402Z,88.50
2018-07-09T03:49:12.485Z,88.70
2018-07-09T03:51:40.844Z,88.60
2018-07-09T03:54:08.723Z,88.40
2018-07-09T03:56:36.666Z,88.80
2018-07-09T03:59:04.975Z,88.80
2018-07-09T04:01:32.917Z,89.10
2018-07-09T04:04:00.822Z,89.10
2018-07-09T04:08:56.465Z,89.80
2018-07-09T04:13:53.019Z,89.80
2018-07-09T04:18:49.969Z,90.00
2018-07-09T04:21:17.924Z,89.70
2018-07-09T04:26:13.706Z,89.80
2018-07-09T04:28:41.596Z,89.40
2018-07-09T04:31:09.494Z,90.00
2018-07-09T04:33:37.394Z,90.10
2018-07-09T04:36:05.658Z,90.00
2018-07-09T04:43:29.133Z,90.20
2018-07-09T04:48:25.004Z,90.30
2018-07-09T04:50:52.953Z,90.50
2018-07-09T04:53:21.172Z,90.70
2018-07-09T04:55:49.971Z,90.70
2018-07-09T04:58:18.921Z,90.40
2018-07-09T05:00:46.868Z,90.10
2018-07-09T05:08:11.514Z,88.30
2018-07-09T05:10:40.018Z,87.40
2018-07-09T05:13:09.205Z,87.90
2018-07-09T05:15:37.115Z,88.30
2018-07-09T05:18:05.901Z,88.10
2018-07-09T05:20:33.849Z,87.00
2018-07-09T05:23:02.970Z,87.40
2018-07-09T05:25:31.106Z,87.40
2018-07-09T05:27:59.571Z,87.20
2018-07-09T05:30:29.299Z,86.60
2018-07-09T05:35:25.407Z,85.90
2018-07-09T05:42:49.431Z,85.60
2018-07-09T05:47:45.584Z,85.50
2018-07-09T05:50:13.664Z,85.40
2018-07-09T05:52:42.444Z,85.80
2018-07-09T05:55:10.451Z,84.70
2018-07-09T05:57:38.779Z,84.30
2018-07-09T06:02:34.620Z,83.60
2018-07-09T06:05:02.681Z,83.40
2018-07-09T06:07:30.692Z,82.60
2018-07-09T06:09:59.238Z,83.00
2018-07-09T06:14:54.933Z,84.00
2018-07-09T06:17:23.259Z,84.20
2018-07-09T06:19:51.167Z,83.40
2018-07-09T06:22:19.105Z,81.20
2018-07-09T06:24:47.107Z,82.20
2018-07-09T06:27:15.088Z,80.10
2018-07-09T06:29:42.988Z,79.20
2018-07-09T06:32:10.932Z,79.00
2018-07-09T06:39:34.459Z,78.30
2018-07-09T06:44:31.417Z,78.30
2018-07-09T06:46:59.406Z,77.80
2018-07-09T06:49:27.393Z,76.30
2018-07-09T06:51:55.415Z,77.00
2018-07-09T06:56:51.694Z,75.80
2018-07-09T06:59:19.750Z,76.30
2018-07-09T07:01:47.691Z,76.90
2018-07-09T07:04:15.599Z,78.30
2018-07-09T07:06:44.113Z,78.70
2018-07-09T07:09:12.169Z,79.00
2018-07-09T07:11:40.840Z,79.20
2018-07-09T07:14:09.478Z,80.30
2018-07-09T07:19:06.234Z,79.80
2018-07-09T07:21:34.359Z,80.20
2018-07-09T07:24:02.294Z,78.90
2018-07-09T07:26:30.602Z,79.50
2018-07-09T07:28:58.589Z,79.20
2018-07-09T07:31:26.800Z,79.30
2018-07-09T07:33:54.934Z,79.30
2018-07-09T07:36:23.505Z,78.00
2018-07-09T07:38:51.567Z,77.50
2018-07-09T07:41:19.482Z,77.70
2018-07-09T07:43:47.618Z,78.00
2018-07-09T07:46:15.876Z,78.30
2018-07-09T07:51:11.727Z,79.70
2018-07-09T07:53:39.638Z,79.70
2018-07-09T07:56:09.019Z,81.40
2018-07-09T07:58:38.386Z,80.60
2018-07-09T08:01:08.529Z,80.30
2018-07-09T08:03:36.884Z,80.70
2018-07-09T08:06:07.040Z,76.70
2018-07-09T08:08:35.130Z,77.50
2018-07-09T08:11:10.912Z,76.30
2018-07-09T08:13:31.424Z,75.30
2018-07-09T08:18:27.212Z,74.50
2018-07-09T08:20:55.695Z,71.80
2018-07-09T08:23:23.688Z,68.80
2018-07-09T08:25:51.673Z,68.90
2018-07-09T08:28:19.616Z,70.30
2018-07-09T08:30:47.508Z,71.60
2018-07-09T08:35:43.275Z,73.70
2018-07-09T08:38:11.176Z,70.80
2018-07-09T08:40:39.173Z,70.60
2018-07-09T08:43:07.363Z,71.20
2018-07-09T08:50:30.835Z,69.10
2018-07-09T08:52:59.450Z,69.20
2018-07-09T08:57:55.221Z,69.00
2018-07-09T09:00:23.161Z,69.60
2018-07-09T09:02:51.623Z,70.90
2018-07-09T09:05:19.580Z,70.10
2018-07-09T09:07:47.677Z,69.90
2018-07-09T09:10:15.874Z,72.90
2018-07-09T09:12:44.020Z,73.00
2018-07-09T09:15:12.029Z,71.30
2018-07-09T09:17:39.998Z,70.60
2018-07-09T09:20:08.347Z,71.10
2018-07-09T09:25:04.139Z,70.70
2018-07-09T09:27:32.072Z,71.70
2018-07-09T09:30:00.844Z,71.80
2018-07-09T09:32:28.874Z,69.40
2018-07-09T09:34:56.797Z,70.60
2018-07-09T09:37:25.444Z,71.70
2018-07-09T09:39:53.529Z,69.80
2018-07-09T09:44:49.215Z,71.70
2018-07-09T09:54:40.619Z,70.30
2018-07-09T09:57:08.551Z,68.80
2018-07-09T09:59:36.492Z,67.80
2018-07-09T10:02:04.398Z,69.40
2018-07-09T10:04:32.907Z,68.10
2018-07-09T10:07:01.211Z,68.20
2018-07-09T10:09:29.133Z,67.00
2018-07-09T10:11:57.056Z,69.00
2018-07-09T10:14:25.599Z,68.30
2018-07-09T10:19:21.569Z,67.80
2018-07-09T10:21:49.524Z,67.70
2018-07-09T10:26:45.242Z,67.60
2018-07-09T10:29:13.229Z,67.90
2018-07-09T10:34:10.421Z,68.50
2018-07-09T10:36:38.925Z,69.10
2018-07-09T10:39:06.897Z,70.40
2018-07-09T10:41:34.797Z,68.70
2018-07-09T10:46:30.555Z,67.80
2018-07-09T10:51:26.367Z,65.60
2018-07-09T10:53:55.123Z,65.80
2018-07-09T10:56:23.076Z,66.80
2018-07-09T10:58:52.138Z,68.70
2018-07-09T11:03:48.534Z,77.20
2018-07-09T11:06:16.570Z,77.90
2018-07-09T11:08:44.457Z,79.00
2018-07-09T11:11:12.475Z,80.40
2018-07-09T11:13:40.437Z,82.20
2018-07-09T11:16:08.592Z,81.90
2018-07-09T11:18:36.461Z,82.20
2018-07-09T11:21:05.339Z,85.50
2018-07-09T11:23:33.984Z,86.20
2018-07-09T11:26:01.965Z,89.40
2018-07-09T11:28:29.900Z,88.90
2018-07-09T11:30:57.868Z,88.40
2018-07-09T11:33:25.959Z,90.40
2018-07-09T11:38:21.782Z,89.40
2018-07-09T11:40:50.211Z,87.20
2018-07-09T11:43:18.159Z,87.20
2018-07-09T11:45:46.438Z,83.50
2018-07-09T11:50:42.687Z,77.70
2018-07-09T11:53:10.661Z,80.80
2018-07-09T11:55:39.546Z,79.50
2018-07-09T11:58:08.278Z,77.60
2018-07-09T12:00:37.171Z,76.20
2018-07-09T12:03:05.713Z,77.70
2018-07-09T12:05:33.893Z,75.40
2018-07-09T12:08:03.139Z,74.80
2018-07-09T12:10:32.174Z,73.40
2018-07-09T12:13:00.083Z,72.60
2018-07-09T12:15:28.044Z,71.20
2018-07-09T12:17:56.193Z,67.30
2018-07-09T12:20:25.165Z,66.80
2018-07-09T12:22:53.146Z,64.40
2018-07-09T12:25:21.215Z,66.90
2018-07-09T12:27:49.156Z,64.90
2018-07-09T12:30:17.193Z,61.50
2018-07-09T12:32:45.114Z,62.00
2018-07-09T12:37:40.858Z,62.30
2018-07-09T12:42:37.017Z,64.00
2018-07-09T12:45:05.224Z,64.40
2018-07-09T12:47:33.175Z,67.10
2018-07-09T12:50:02.113Z,74.20
2018-07-09T12:52:31.167Z,79.40
2018-07-09T12:54:59.319Z,82.10
2018-07-09T12:57:27.246Z,85.40
2018-07-09T12:59:55.132Z,85.80
2018-07-09T13:02:23.134Z,89.60
2018-07-09T13:04:51.712Z,90.10
2018-07-09T13:07:20.284Z,91.20
2018-07-09T13:09:48.733Z,91.40
2018-07-09T13:12:33.483Z,91.10
2018-07-09T13:15:02.183Z,91.50
2018-07-09T13:17:30.098Z,91.60
2018-07-09T13:19:59.611Z,92.40
2018-07-09T13:22:27.655Z,92.60
2018-07-09T13:24:55.549Z,93.40
2018-07-09T13:27:23.494Z,93.70
2018-07-09T13:29:51.571Z,93.70
2018-07-09T13:32:19.624Z,94.10
2018-07-09T13:39:43.145Z,94.10
2018-07-09T13:42:11.456Z,94.00
2018-07-09T13:44:39.611Z,94.30
2018-07-09T13:47:07.545Z,93.60
2018-07-09T13:49:35.850Z,93.00
2018-07-09T13:52:03.805Z,92.30
2018-07-09T13:54:31.852Z,92.20
2018-07-09T13:56:59.824Z,91.10
2018-07-09T14:01:55.934Z,90.70
2018-07-09T14:04:23.836Z,88.50
2018-07-09T14:09:19.530Z,89.80
2018-07-09T14:11:47.429Z,87.60
2018-07-09T14:16:43.270Z,87.60
2018-07-09T14:21:46.742Z,85.20
2018-07-09T14:24:15.309Z,85.90
2018-07-09T14:26:43.990Z,85.90
2018-07-09T14:29:12.668Z,84.10
2018-07-09T14:31:40.731Z,82.10
2018-07-09T14:34:09.297Z,81.40
2018-07-09T14:41:35.344Z,79.70
2018-07-09T14:44:03.482Z,80.70
2018-07-09T14:46:32.150Z,79.40
2018-07-09T14:49:00.940Z,79.60
2018-07-09T14:51:29.887Z,80.30
2018-07-09T14:53:58.078Z,79.70
2018-07-09T14:56:26.082Z,79.70
2018-07-09T14:58:54.736Z,77.80
2018-07-09T15:03:50.593Z,75.70
2018-07-09T15:06:19.973Z,75.30
2018-07-09T15:08:48.004Z,73.60
2018-07-09T15:11:16.533Z,75.50
2018-07-09T15:13:44.601Z,75.50
2018-07-09T15:16:13.138Z,75.50
2018-07-09T15:18:41.835Z,75.40
2018-07-09T15:23:38.232Z,75.10
2018-07-09T15:26:06.187Z,76.10
2018-07-09T15:31:02.232Z,75.30
2018-07-09T15:35:57.958Z,74.10
2018-07-09T15:38:26.477Z,75.40
2018-07-09T15:40:54.511Z,75.30
2018-07-09T15:45:56.805Z,75.90
2018-07-09T15:48:24.868Z,76.00
2018-07-09T15:53:20.621Z,75.70
2018-07-09T15:58:32.869Z,77.10
2018-07-09T16:01:00.897Z,77.50
2018-07-09T16:03:28.955Z,76.70
2018-07-09T16:05:56.986Z,77.30
2018-07-09T16:08:25.041Z,76.90
2018-07-09T16:10:52.979Z,75.30
2018-07-09T16:13:20.909Z,74.00
2018-07-09T16:15:48.802Z,75.60
2018-07-09T16:18:17.374Z,74.70
2018-07-09T16:20:45.289Z,75.20
2018-07-09T16:23:13.195Z,75.90
2018-07-09T16:25:41.840Z,76.30
2018-07-09T16:28:09.730Z,76.50
2018-07-09T16:30:37.766Z,74.50
2018-07-09T16:33:06.123Z,75.00
2018-07-09T16:35:34.592Z,76.70
2018-07-09T16:38:03.094Z,77.60
2018-07-09T16:40:31.039Z,77.90
2018-07-09T16:42:59.137Z,78.50
2018-07-09T16:45:30.058Z,78.10
2018-07-09T16:53:03.778Z,78.00
2018-07-09T16:55:39.739Z,76.80
2018-07-09T16:58:13.330Z,76.90
2018-07-09T17:00:41.511Z,78.50
2018-07-09T17:03:10.234Z,79.20
2018-07-09T17:05:38.610Z,78.70
2018-07-09T17:08:07.405Z,79.20
2018-07-09T17:10:36.100Z,78.60
2018-07-09T17:15:32.031Z,80.10
2018-07-09T17:20:27.786Z,82.00
2018-07-09T17:22:55.850Z,82.80
2018-07-09T17:25:23.768Z,82.90
2018-07-09T17:27:51.704Z,82.70
2018-07-09T17:30:19.851Z,81.50
2018-07-09T17:32:48.003Z,82.50
2018-07-09T17:35:15.882Z,82.70
2018-07-09T17:37:44.619Z,81.10
2018-07-09T17:42:40.296Z,81.20
2018-07-09T17:47:36.853Z,82.60
2018-07-09T17:50:05.198Z,83.00
2018-07-09T17:52:33.208Z,82.90
2018-07-09T17:55:01.129Z,82.60
2018-07-09T17:57:29.067Z,83.00
2018-07-09T17:59:56.974Z,83.20
2018-07-09T18:02:24.916Z,83.10
2018-07-09T18:04:53.055Z,83.50
2018-07-09T18:09:48.876Z,83.60
2018-07-09T18:12:16.799Z,83.10
2018-07-09T18:14:44.898Z,83.00
2018-07-09T18:17:12.785Z,83.10
2018-07-09T18:22:08.482Z,83.30
2018-07-09T18:24:36.656Z,83.50
2018-07-09T18:27:04.651Z,83.70
2018-07-09T18:29:32.876Z,83.70
2018-07-09T18:32:02.012Z,84.00
2018-07-09T18:34:29.923Z,83.70
2018-07-09T18:39:25.711Z,83.80
2018-07-09T18:41:53.650Z,84.00
2018-07-09T18:44:23.359Z,84.40
2018-07-09T18:46:51.307Z,85.40
2018-07-09T18:49:19.249Z,86.10
2018-07-09T18:54:16.649Z,86.10
2018-07-09T18:56:44.716Z,86.30
2018-07-09T18:59:12.685Z,86.20
2018-07-09T19:04:09.737Z,86.90
2018-07-09T19:06:52.991Z,87.50
2018-07-09T19:09:22.891Z,87.70
2018-07-09T19:11:52.417Z,87.80
2018-07-09T19:14:23.357Z,88.10
2018-07-09T19:18:08.748Z,88.20
2018-07-09T19:21:18.979Z,88.30
2018-07-09T19:23:46.519Z,88.50
2018-07-09T19:26:13.698Z,88.60
2018-07-09T19:28:40.433Z,88.40
2018-07-09T19:31:07.231Z,89.20
2018-07-09T19:33:35.170Z,89.50
2018-07-09T19:36:02.925Z,89.30
2018-07-09T19:38:29.747Z,90.00
2018-07-09T19:45:51.739Z,90.30
2018-07-09T19:50:46.212Z,90.10
2018-07-09T19:58:09.219Z,90.10
2018-07-09T20:00:36.662Z,90.40
2018-07-09T20:03:04.118Z,90.40
2018-07-09T20:05:31.064Z,90.30
2018-07-09T20:07:58.528Z,90.30
2018-07-09T20:10:31.046Z,90.50
2018-07-09T20:14:00.966Z,90.70
2018-07-09T20:16:33.362Z,90.70
2018-07-09T20:19:00.170Z,90.80
2018-07-09T20:21:27.383Z,91.00
2018-07-09T20:23:54.314Z,91.00
2018-07-09T20:28:48.724Z,91.20
2018-07-09T20:33:43.286Z,90.90
2018-07-09T20:36:10.894Z,90.80
2018-07-09T20:41:05.055Z,91.00
2018-07-09T20:43:32.897Z,90.80
2018-07-09T20:45:59.657Z,90.80
2018-07-09T20:48:26.446Z,90.80
2018-07-09T20:53:20.512Z,90.80
2018-07-09T20:55:47.801Z,90.60
2018-07-09T21:00:43.057Z,90.60
2018-07-09T21:03:10.284Z,90.50
2018-07-09T21:05:37.042Z,90.50
2018-07-09T21:08:03.829Z,90.40
2018-07-09T21:10:30.596Z,90.50
2018-07-09T21:15:27.518Z,90.70
2018-07-09T21:17:54.498Z,90.70
2018-07-09T21:20:21.485Z,90.70
2018-07-09T21:22:48.897Z,90.60
2018-07-09T21:30:11.186Z,90.50
2018-07-09T21:32:37.963Z,90.50
2018-07-09T21:35:05.061Z,90.50
2018-07-09T21:39:59.030Z,90.50
2018-07-09T21:42:25.791Z,90.40
2018-07-09T21:47:19.759Z,90.50
2018-07-09T21:49:46.530Z,90.60
2018-07-09T21:54:40.477Z,90.80
2018-07-09T21:57:07.258Z,90.70
2018-07-09T21:59:33.999Z,90.80
2018-07-09T22:02:00.765Z,90.90
2018-07-09T22:04:27.506Z,91.20
2018-07-09T22:06:54.288Z,91.00
2018-07-09T22:09:21.124Z,91.10
2018-07-09T22:11:48.466Z,91.10
2018-07-09T22:14:15.583Z,91.30
2018-07-09T22:16:42.360Z,91.40
2018-07-09T22:19:09.132Z,91.40
2018-07-09T22:21:35.915Z,91.40
2018-07-09T22:24:02.687Z,91.70
2018-07-09T22:26:29.459Z,91.80
2018-07-09T22:33:52.359Z,91.70
2018-07-09T22:36:20.266Z,92.10
2018-07-09T22:38:48.192Z,92.00
2018-07-09T22:43:55.224Z,91.80
2018-07-09T22:46:23.160Z,92.00
2018-07-09T22:51:18.877Z,92.20
2018-07-09T22:53:46.837Z,92.20
2018-07-09T22:56:15.719Z,92.20
2018-07-09T22:58:43.659Z,92.20
2018-07-09T23:01:11.690Z,92.10
2018-07-09T23:06:07.923Z,92.10
2018-07-09T23:08:35.850Z,92.10
2018-07-09T23:11:21.098Z,92.00
2018-07-09T23:17:36.050Z,91.90
2018-07-09T23:20:42.274Z,92.20
2018-07-09T23:23:09.048Z,92.30
2018-07-09T23:25:35.808Z,92.50
2018-07-09T23:28:02.822Z,92.60
2018-07-09T23:30:29.546Z,92.60
2018-07-09T23:32:56.268Z,92.50
2018-07-09T23:35:22.986Z,92.30
2018-07-09T23:37:49.758Z,92.20
2018-07-09T23:40:16.503Z,92.30
2018-07-09T23:42:43.246Z,92.10
2018-07-09T23:45:10.012Z,92.00
2018-07-09T23:47:36.767Z,92.00
2018-07-09T23:50:03.528Z,91.80
2018-07-09T23:52:30.616Z,91.70
2018-07-09T23:54:57.342Z,91.80
2018-07-09T23:59:43.424Z,92.00
